Time;durP1;ratioP1;P1;durP2;ratioP2;P2;SDS_P1;SDS_P2;PMS_P1;PMS_P2;Temp;Humidity;BMP_temperature;BMP_pressure;BME280_temperature;BME280_humidity;BME280_pressure;Samples;Min_cycle;Max_cycle;Signal;HPM_P1;HPM_P2
2022/06/21 00:00:01;;;;;;;1999.90;999.90;;;9.90;84.20;;;;;;4962640;28;20105;-66
2022/06/21 00:02:26;;;;;;;1999.90;999.90;;;9.80;83.90;;;;;;4961828;28;20047;-66
2022/06/21 00:04:54;;;;;;;1999.90;999.90;;;9.80;84.10;;;;;;4930203;28;20026;-66
2022/06/21 00:07:26;;;;;;;1999.90;999.90;;;9.80;84.10;;;;;;4943841;28;20049;-66
2022/06/21 00:09:53;;;;;;;1999.90;999.90;;;9.70;84.20;;;;;;4960109;28;20039;-66
2022/06/21 00:12:20;;;;;;;1999.90;956.53;;;9.70;83.90;;;;;;4962772;28;20727;-66
2022/06/21 00:14:46;;;;;;;1999.90;999.90;;;9.60;84.00;;;;;;4944393;28;20133;-66
2022/06/21 00:17:21;;;;;;;1737.10;999.90;;;9.60;83.80;;;;;;4961221;28;20134;-66
2022/06/21 00:19:47;;;;;;;1860.03;999.90;;;9.60;83.70;;;;;;4951126;28;20078;-66
2022/06/21 00:22:15;;;;;;;1888.30;999.90;;;9.60;83.50;;;;;;4943974;28;20038;-66
2022/06/21 00:24:41;;;;;;;1907.72;999.90;;;9.60;84.10;;;;;;4961395;28;20406;-66
2022/06/21 00:27:16;;;;;;;1915.03;998.95;;;9.50;83.80;;;;;;4945636;28;20105;-66
2022/06/21 00:29:43;;;;;;;1717.32;999.90;;;9.50;83.60;;;;;;4947710;28;20061;-66
2022/06/21 00:32:17;;;;;;;1629.22;999.90;;;9.50;83.80;;;;;;4946529;28;20051;-66
2022/06/21 00:34:44;;;;;;;1678.00;999.90;;;9.40;84.20;;;;;;4946994;28;20058;-66
2022/06/21 00:37:21;;;;;;;1663.22;999.90;;;9.40;84.10;;;;;;4963535;28;20336;-66
2022/06/21 00:39:47;;;;;;;1469.95;999.90;;;9.40;83.80;;;;;;4963267;28;20291;-66
2022/06/21 00:42:26;;;;;;;1475.88;999.90;;;9.30;84.00;;;;;;4948298;28;20097;-66
2022/06/21 00:45:23;;;;;;;1627.10;999.90;;;9.30;84.50;;;;;;4948888;28;20043;-66
2022/06/21 00:47:52;;;;;;;1445.35;999.90;;;9.30;84.20;;;;;;4971280;28;20046;-66
2022/06/21 00:50:33;;;;;;;1521.38;999.90;;;9.30;84.00;;;;;;4948563;28;20043;-66
2022/06/21 00:53:23;;;;;;;1705.97;999.90;;;9.30;83.60;;;;;;4964419;28;20078;-66
2022/06/21 00:56:07;;;;;;;1565.45;999.90;;;9.20;83.40;;;;;;4963255;28;20050;-66
2022/06/21 00:58:33;;;;;;;1439.32;999.90;;;9.20;83.30;;;;;;4963081;28;20046;-66
2022/06/21 01:01:21;;;;;;;1717.60;999.90;;;9.20;83.10;;;;;;4962996;28;20730;-66
2022/06/21 01:04:10;;;;;;;1609.45;999.90;;;9.20;82.90;;;;;;4964579;28;20084;-66
2022/06/21 01:06:40;;;;;;;1796.05;999.90;;;9.20;82.80;;;;;;4962813;28;20034;-66
2022/06/21 01:09:14;;;;;;;1925.00;999.90;;;9.20;82.90;;;;;;4962662;28;20355;-66
2022/06/21 01:11:52;;;;;;;1747.13;999.90;;;9.20;82.90;;;;;;4963880;28;20126;-66
2022/06/21 01:14:21;;;;;;;1891.90;999.90;;;9.10;83.20;;;;;;4946391;28;20051;-66
2022/06/21 01:16:47;;;;;;;1825.40;999.90;;;9.10;83.20;;;;;;4964718;28;20034;-66
2022/06/21 01:19:32;;;;;;;1999.90;998.42;;;9.10;83.40;;;;;;4949184;28;20051;-66
2022/06/21 01:22:06;;;;;;;1999.90;997.38;;;9.10;85.00;;;;;;4962503;28;20448;-66
2022/06/21 01:24:45;;;;;;;1999.90;999.90;;;9.10;85.60;;;;;;4964036;28;20421;-66
2022/06/21 01:27:11;;;;;;;1999.90;993.50;;;9.10;86.10;;;;;;4963090;28;20051;-66
2022/06/21 01:29:38;;;;;;;1951.43;999.90;;;9.00;85.90;;;;;;4948241;28;20054;-66
2022/06/21 01:32:06;;;;;;;1999.90;999.90;;;9.00;85.30;;;;;;4962969;28;20051;-66
2022/06/21 01:34:31;;;;;;;1999.90;999.90;;;9.00;86.20;;;;;;4963000;28;20105;-66
2022/06/21 01:37:28;;;;;;;1999.90;999.90;;;9.00;86.90;;;;;;4959777;28;20039;-66
2022/06/21 01:39:57;;;;;;;1995.28;833.95;;;8.90;86.50;;;;;;4946825;28;20495;-66
2022/06/21 01:42:42;;;;;;;1999.90;989.33;;;8.80;86.80;;;;;;4964383;28;20527;-66
2022/06/21 01:45:12;;;;;;;1999.90;996.33;;;8.80;86.90;;;;;;4958968;28;20054;-66
2022/06/21 01:48:05;;;;;;;1805.00;999.90;;;8.80;87.60;;;;;;4975124;28;20395;-66
2022/06/21 01:50:34;;;;;;;1992.90;999.90;;;8.70;88.50;;;;;;4938346;28;20520;-66
2022/06/21 01:53:02;;;;;;;1999.90;999.13;;;8.70;89.00;;;;;;4963650;28;20458;-66
2022/06/21 01:55:33;;;;;;;1999.90;835.08;;;8.70;88.60;;;;;;4961561;28;20038;-66
2022/06/21 01:58:01;;;;;;;1999.90;950.63;;;8.60;88.10;;;;;;4962064;28;20051;-66
2022/06/21 02:00:31;;;;;;;1999.90;983.67;;;8.60;88.00;;;;;;4946952;28;20105;-66
2022/06/21 02:03:02;;;;;;;1923.40;979.63;;;8.50;88.40;;;;;;4962994;28;20137;-66
2022/06/21 02:05:37;;;;;;;1714.10;958.15;;;8.50;88.00;;;;;;4959091;28;20043;-66
2022/06/21 02:08:08;;;;;;;1710.80;999.90;;;8.50;87.70;;;;;;4963379;28;20034;-66
2022/06/21 02:10:56;;;;;;;1781.82;999.90;;;8.40;87.30;;;;;;4962835;28;20073;-66
2022/06/21 02:13:33;;;;;;;1824.82;999.90;;;8.40;87.70;;;;;;4959762;28;20047;-66
2022/06/21 02:16:10;;;;;;;1710.40;999.90;;;8.40;88.30;;;;;;4961071;28;20058;-66
2022/06/21 02:18:41;;;;;;;1994.32;982.50;;;8.30;87.70;;;;;;4963482;28;20652;-66
2022/06/21 02:21:34;;;;;;;1845.07;967.65;;;8.30;87.60;;;;;;4962936;28;20051;-66
2022/06/21 02:24:01;;;;;;;1999.90;943.55;;;8.30;87.30;;;;;;4962021;28;20039;-66
2022/06/21 02:26:30;;;;;;;1971.00;990.20;;;8.30;87.10;;;;;;4962678;28;20042;-66
2022/06/21 02:28:56;;;;;;;1999.90;945.15;;;8.30;86.70;;;;;;4963531;28;20097;-66
2022/06/21 02:31:25;;;;;;;1999.90;953.80;;;8.30;86.70;;;;;;4945924;28;20058;-66
2022/06/21 02:33:53;;;;;;;1999.90;983.42;;;8.30;86.70;;;;;;4956503;28;20114;-66
2022/06/21 02:36:30;;;;;;;1505.53;999.90;;;8.30;87.50;;;;;;4962941;28;20054;-66
2022/06/21 02:39:04;;;;;;;1448.97;999.90;;;8.30;87.40;;;;;;4958903;28;20129;-66
2022/06/21 02:41:35;;;;;;;1405.82;999.90;;;8.30;87.70;;;;;;4960536;28;20031;-66
2022/06/21 02:44:11;;;;;;;1426.05;999.90;;;8.30;88.40;;;;;;4945805;28;20609;-66
2022/06/21 02:46:38;;;;;;;;;;;8.30;87.90;;;;;;4962380;28;20055;-66
2022/06/21 02:49:12;;;;;;;1257.45;991.72;;;8.30;87.60;;;;;;4961566;28;20102;-66
2022/06/21 02:51:47;;;;;;;1431.05;999.90;;;8.20;87.50;;;;;;4962922;28;20528;-66
2022/06/21 02:54:12;;;;;;;1371.32;999.90;;;8.20;87.80;;;;;;4959644;28;20046;-66
2022/06/21 02:56:47;;;;;;;1494.17;999.90;;;8.20;88.10;;;;;;4942780;28;20546;-66
2022/06/21 02:59:14;;;;;;;1408.43;999.90;;;8.20;87.90;;;;;;4945655;28;20458;-66
2022/06/21 03:01:44;;;;;;;1353.45;999.90;;;8.20;88.00;;;;;;4926125;28;20118;-66
2022/06/21 03:04:19;;;;;;;1450.80;999.90;;;8.20;88.50;;;;;;4960782;28;20047;-66
2022/06/21 03:06:45;;;;;;;1358.43;999.90;;;8.20;89.40;;;;;;4959102;28;20085;-66
2022/06/21 03:09:17;;;;;;;1442.75;999.90;;;8.20;89.10;;;;;;4945721;28;20053;-66
2022/06/21 03:11:46;;;;;;;1467.60;999.90;;;8.20;88.90;;;;;;4939906;28;20062;-66
2022/06/21 03:14:16;;;;;;;1315.97;999.90;;;8.20;89.10;;;;;;4944883;28;20074;-66
2022/06/21 03:16:44;;;;;;;1703.88;999.90;;;8.20;89.10;;;;;;4945839;28;20031;-66
2022/06/21 03:19:47;;;;;;;1808.90;999.90;;;8.20;89.00;;;;;;4946978;28;20563;-66
2022/06/21 03:22:23;;;;;;;1694.72;999.90;;;8.20;89.20;;;;;;4912449;29;20171;-66
2022/06/21 03:24:56;;;;;;;1709.60;999.90;;;8.20;89.30;;;;;;4953410;28;20043;-66
2022/06/21 03:27:48;;;;;;;1749.93;999.90;;;8.30;89.10;;;;;;4961486;28;20039;-66
2022/06/21 03:30:16;;;;;;;1648.05;999.90;;;8.40;89.10;;;;;;4958717;28;20050;-66
2022/06/21 03:32:42;;;;;;;1793.10;999.90;;;8.40;88.90;;;;;;4961789;28;20038;-66
2022/06/21 03:35:09;;;;;;;1999.90;954.72;;;8.60;89.20;;;;;;4958653;28;20050;-66
2022/06/21 03:37:38;;;;;;;1957.45;946.33;;;8.70;89.30;;;;;;4961446;28;20198;-66
2022/06/21 03:42:52;;;;;;;1999.90;999.90;;;8.90;89.00;;;;;;4959933;28;20187;-66
2022/06/21 03:45:24;;;;;;;1998.97;999.90;;;9.10;89.30;;;;;;4958599;28;20090;-66
2022/06/21 03:48:00;;;;;;;1999.90;999.90;;;9.20;89.20;;;;;;4959768;28;20078;-66
2022/06/21 03:50:37;;;;;;;1999.90;999.90;;;9.30;89.40;;;;;;4943622;28;20057;-66
2022/06/21 03:53:06;;;;;;;1999.90;850.15;;;9.40;89.40;;;;;;4975502;28;20101;-66
2022/06/21 03:55:31;;;;;;;1999.90;943.22;;;9.50;89.00;;;;;;4943352;28;20074;-66
2022/06/21 03:57:57;;;;;;;1999.90;893.07;;;9.60;88.80;;;;;;4945902;28;20511;-66
2022/06/21 04:00:27;;;;;;;1999.90;879.60;;;9.80;89.40;;;;;;4961299;28;20035;-66
2022/06/21 04:02:58;;;;;;;1999.90;803.80;;;9.80;89.00;;;;;;4959340;28;20042;-66
2022/06/21 04:05:38;;;;;;;1999.90;915.85;;;9.90;88.90;;;;;;4962544;28;20035;-66
2022/06/21 04:08:18;;;;;;;1999.90;969.05;;;10.00;88.80;;;;;;4964533;28;20507;-66
2022/06/21 04:10:50;;;;;;;1999.90;849.90;;;10.10;88.40;;;;;;4945616;28;20059;-66
2022/06/21 04:13:26;;;;;;;1999.90;864.67;;;10.20;88.20;;;;;;4965410;28;20741;-66
2022/06/21 04:16:02;;;;;;;1999.90;754.78;;;10.30;87.90;;;;;;4964054;28;20085;-66
2022/06/21 04:18:39;;;;;;;1999.90;837.25;;;10.50;88.10;;;;;;4963332;28;20219;-66
2022/06/21 04:21:15;;;;;;;1999.90;821.30;;;10.50;87.60;;;;;;4949693;28;20375;-66
2022/06/21 04:23:58;;;;;;;1999.90;836.00;;;10.60;87.40;;;;;;4965040;28;20049;-66
2022/06/21 04:26:41;;;;;;;1999.90;883.15;;;10.70;87.30;;;;;;4966008;28;20585;-66
2022/06/21 04:29:18;;;;;;;1999.90;862.78;;;10.70;87.20;;;;;;4962990;28;21649;-66
2022/06/21 04:31:49;;;;;;;1822.07;999.90;;;10.80;87.00;;;;;;4964186;28;20034;-66
2022/06/21 04:34:24;;;;;;;1999.90;999.90;;;10.90;86.90;;;;;;4949038;28;20122;-66
2022/06/21 04:37:02;;;;;;;1999.90;952.33;;;11.40;88.10;;;;;;4964901;28;20043;-66
2022/06/21 04:39:50;;;;;;;1999.90;867.10;;;12.50;87.80;;;;;;4964530;28;20174;-66
2022/06/21 04:42:26;;;;;;;1999.90;788.70;;;13.60;85.30;;;;;;4946803;28;20503;-66
2022/06/21 04:45:04;;;;;;;1999.90;706.35;;;14.30;82.50;;;;;;4968467;28;20043;-67
2022/06/21 04:47:43;;;;;;;1999.90;736.60;;;14.60;80.40;;;;;;4958403;28;20039;-66
2022/06/21 04:50:32;;;;;;;1999.90;799.78;;;14.90;79.20;;;;;;4966503;28;20309;-67
2022/06/21 04:53:25;;;;;;;1999.90;771.00;;;15.30;78.20;;;;;;4974009;28;20079;-67
2022/06/21 04:56:05;;;;;;;1999.90;999.90;;;16.10;76.80;;;;;;4950822;28;20361;-67
2022/06/21 04:58:31;;;;;;;1999.90;999.90;;;16.80;74.10;;;;;;4960795;28;20316;-67
2022/06/21 05:00:58;;;;;;;1999.90;999.90;;;17.50;72.20;;;;;;4949363;28;20314;-67
2022/06/21 05:03:53;;;;;;;1999.90;999.90;;;18.10;70.60;;;;;;4968940;28;20043;-67
2022/06/21 05:06:19;;;;;;;1999.90;999.90;;;18.20;68.00;;;;;;4935475;28;20306;-67
2022/06/21 05:08:48;;;;;;;1999.90;999.90;;;18.00;68.20;;;;;;4933478;28;20420;-67
2022/06/21 05:11:14;;;;;;;1889.57;999.90;;;17.50;68.70;;;;;;4966902;28;20629;-67
2022/06/21 05:13:49;;;;;;;1976.63;999.90;;;17.10;69.30;;;;;;4951852;28;20752;-67
2022/06/21 05:16:34;;;;;;;1999.90;999.90;;;16.50;70.00;;;;;;4957508;28;20555;-67
2022/06/21 05:19:15;;;;;;;1965.03;999.90;;;16.00;71.40;;;;;;4967369;28;20606;-67
2022/06/21 05:21:52;;;;;;;1899.33;999.90;;;16.20;73.50;;;;;;4957917;28;20039;-67
2022/06/21 05:24:19;;;;;;;1993.70;999.90;;;17.00;71.40;;;;;;4982381;28;20337;-67
2022/06/21 05:27:07;;;;;;;1988.97;999.90;;;17.10;70.10;;;;;;4950205;28;20361;-67
2022/06/21 05:29:46;;;;;;;1999.90;999.90;;;16.90;69.80;;;;;;4958776;28;20758;-67
2022/06/21 05:32:19;;;;;;;1999.90;995.87;;;16.70;70.60;;;;;;4958737;28;20743;-67
2022/06/21 05:34:58;;;;;;;1999.90;951.27;;;16.70;71.50;;;;;;4963536;28;20309;-67
2022/06/21 05:37:31;;;;;;;1999.90;993.90;;;16.60;71.30;;;;;;4963460;28;20306;-67
2022/06/21 05:40:02;;;;;;;1999.90;999.90;;;16.70;71.90;;;;;;4963204;28;20708;-67
2022/06/21 05:42:28;;;;;;;1999.90;974.77;;;17.00;71.30;;;;;;4968656;28;20293;-67
2022/06/21 05:45:03;;;;;;;1999.90;992.50;;;17.80;69.40;;;;;;4961578;28;20298;-67
2022/06/21 05:47:29;;;;;;;1999.90;999.90;;;18.50;67.10;;;;;;4949189;29;20302;-67
2022/06/21 05:49:57;;;;;;;1999.90;999.90;;;18.80;65.50;;;;;;4947002;28;20042;-67
2022/06/21 05:52:45;;;;;;;1999.90;999.90;;;18.50;66.00;;;;;;4968175;28;20054;-67
2022/06/21 05:55:21;;;;;;;1999.90;999.90;;;18.60;65.60;;;;;;4951030;28;20305;-67
2022/06/21 05:57:53;;;;;;;1999.90;999.90;;;18.60;66.30;;;;;;4964868;28;20306;-67
2022/06/21 06:01:04;;;;;;;1999.90;999.90;;;18.30;66.50;;;;;;4967736;28;20783;-67
2022/06/21 06:03:47;;;;;;;1999.90;999.90;;;18.20;66.60;;;;;;4954979;28;20301;-67
2022/06/21 06:06:15;;;;;;;1999.90;999.90;;;18.60;66.50;;;;;;4963803;28;20402;-67
2022/06/21 06:08:45;;;;;;;1999.90;999.90;;;19.30;64.90;;;;;;4967420;28;20798;-67
2022/06/21 06:11:22;;;;;;;1999.90;999.90;;;20.30;62.70;;;;;;4965308;28;20311;-67
2022/06/21 06:13:50;;;;;;;1999.90;999.90;;;21.10;59.50;;;;;;4966216;28;20632;-67
2022/06/21 06:16:35;;;;;;;1999.90;999.90;;;21.70;57.40;;;;;;4951903;28;20421;-67
2022/06/21 06:19:16;;;;;;;1690.17;999.90;;;22.30;54.40;;;;;;4965515;28;20404;-67
2022/06/21 06:21:50;;;;;;;1999.90;999.90;;;22.60;53.20;;;;;;4964968;28;20292;-67
2022/06/21 06:24:31;;;;;;;1999.90;999.90;;;22.80;52.00;;;;;;4935232;28;20045;-67
2022/06/21 06:27:00;;;;;;;1864.57;999.90;;;23.10;51.70;;;;;;4942949;28;20027;-67
2022/06/21 06:29:43;;;;;;;1999.90;999.90;;;23.40;51.50;;;;;;4963763;28;20884;-67
2022/06/21 06:32:29;;;;;;;1987.77;999.90;;;23.50;49.90;;;;;;4962314;28;20306;-67
2022/06/21 06:34:56;;;;;;;1974.23;999.90;;;23.70;49.30;;;;;;4965242;28;20049;-67
2022/06/21 06:37:37;;;;;;;1999.90;999.90;;;23.30;50.30;;;;;;4953840;28;20047;-67
2022/06/21 06:40:23;;;;;;;1861.17;999.90;;;22.60;48.40;;;;;;4962391;28;20050;-67
2022/06/21 06:42:57;;;;;;;1999.90;999.90;;;21.70;51.30;;;;;;4966922;28;20054;-67
2022/06/21 06:45:30;;;;;;;1943.68;999.90;;;21.80;52.50;;;;;;4959892;28;20045;-67
2022/06/21 06:48:03;;;;;;;1929.90;999.90;;;21.70;52.00;;;;;;4941565;28;20510;-67
2022/06/21 06:50:45;;;;;;;1816.20;999.90;;;21.20;52.90;;;;;;4947129;28;20390;-67
2022/06/21 06:53:18;;;;;;;1999.90;999.90;;;20.50;54.20;;;;;;4967455;28;20655;-67
2022/06/21 06:55:45;;;;;;;1999.90;999.90;;;20.10;55.10;;;;;;4966566;28;20050;-67
2022/06/21 06:58:53;;;;;;;1999.90;999.90;;;19.80;56.10;;;;;;4953994;28;20311;-67
2022/06/21 07:01:21;;;;;;;1950.97;999.90;;;20.00;56.50;;;;;;4953194;28;20055;-67
2022/06/21 07:03:59;;;;;;;1999.90;999.90;;;20.30;55.50;;;;;;4960500;28;20077;-67
2022/06/21 07:06:43;;;;;;;1936.47;999.90;;;20.20;55.40;;;;;;4974814;28;20046;-67
2022/06/21 07:09:26;;;;;;;1999.90;999.90;;;20.30;56.00;;;;;;4936420;28;20169;-67
2022/06/21 07:12:20;;;;;;;1999.90;999.90;;;20.50;56.40;;;;;;4964692;28;20054;-67
2022/06/21 07:14:48;;;;;;;1999.90;999.90;;;20.30;56.30;;;;;;4963655;28;20054;-67
2022/06/21 07:17:33;;;;;;;1999.90;999.90;;;20.00;57.10;;;;;;4941830;28;20091;-67
2022/06/21 07:19:59;;;;;;;;;;;19.50;57.20;;;;;;4966645;28;20046;-67
2022/06/21 07:22:31;;;;;;;1783.63;999.90;;;19.10;57.60;;;;;;4933514;28;19973;-67
2022/06/21 07:25:17;;;;;;;1857.03;999.90;;;18.70;59.60;;;;;;4948214;28;20043;-67
2022/06/21 07:27:44;;;;;;;;;;;18.40;59.60;;;;;;4954814;28;20391;-67
2022/06/21 07:30:13;;;;;;;1831.57;999.90;;;18.20;60.30;;;;;;4944968;28;19922;-68
2022/06/21 07:32:48;;;;;;;1815.13;999.90;;;18.20;61.30;;;;;;4960695;28;20045;-67
2022/06/21 07:35:24;;;;;;;1858.55;999.90;;;18.20;61.10;;;;;;4971319;28;20522;-67
2022/06/21 07:38:12;;;;;;;1794.77;999.90;;;18.40;60.70;;;;;;4941773;28;20594;-67
2022/06/21 07:40:56;;;;;;;1890.43;999.90;;;18.40;60.80;;;;;;4965319;28;20047;-67
2022/06/21 07:43:30;;;;;;;1999.90;999.90;;;18.20;61.30;;;;;;4953134;28;20049;-67
2022/06/21 07:45:59;;;;;;;1950.55;999.90;;;18.00;61.50;;;;;;4967866;28;20093;-67
2022/06/21 07:48:37;;;;;;;1922.83;999.90;;;17.90;61.40;;;;;;4969415;28;20055;-67
2022/06/21 07:51:08;;;;;;;1856.73;999.90;;;17.90;61.20;;;;;;4945914;28;20936;-67
2022/06/21 07:53:46;;;;;;;1999.90;999.90;;;18.00;61.00;;;;;;4962835;28;20046;-67
2022/06/21 07:56:33;;;;;;;1989.87;999.90;;;18.20;60.70;;;;;;4966145;28;20310;-67
2022/06/21 07:59:03;;;;;;;1993.57;999.90;;;18.40;60.20;;;;;;4951936;28;20294;-67
2022/06/21 08:07:24;;;;;;;1999.90;999.90;;;19.20;59.30;;;;;;4963015;28;20137;-67
2022/06/21 08:10:13;;;;;;;1977.90;999.90;;;19.40;58.80;;;;;;4960226;28;20305;-67
2022/06/21 08:12:39;;;;;;;1999.90;999.90;;;19.50;58.20;;;;;;4969201;28;20050;-67
2022/06/21 08:15:05;;;;;;;1999.90;999.90;;;19.60;58.10;;;;;;4944807;28;20039;-67
2022/06/21 08:17:40;;;;;;;1999.90;999.90;;;19.70;58.30;;;;;;4943002;28;20035;-67
2022/06/21 08:20:23;;;;;;;1999.90;999.90;;;19.50;57.10;;;;;;4959542;28;20042;-67
2022/06/21 08:23:04;;;;;;;1786.40;999.90;;;19.10;57.80;;;;;;4962604;28;20126;-67
2022/06/21 08:25:42;;;;;;;1996.37;999.90;;;19.00;58.70;;;;;;4960100;28;20043;-67
2022/06/21 08:28:34;;;;;;;1999.90;999.90;;;18.80;58.50;;;;;;4949036;28;20051;-67
2022/06/21 08:31:30;;;;;;;1999.90;999.90;;;18.60;59.00;;;;;;4929248;28;20055;-67
2022/06/21 08:34:02;;;;;;;1964.23;999.90;;;18.60;59.10;;;;;;4936525;28;20129;-67
2022/06/21 08:36:39;;;;;;;1999.90;999.90;;;18.60;59.30;;;;;;4949691;28;20410;-67
2022/06/21 08:39:42;;;;;;;1855.33;999.90;;;18.80;59.50;;;;;;4960238;28;20051;-67
2022/06/21 08:42:26;;;;;;;1873.70;999.90;;;19.00;60.20;;;;;;4907867;28;20058;-67
2022/06/21 08:45:43;;;;;;;1867.03;999.90;;;19.40;58.70;;;;;;4948786;28;20034;-67
2022/06/21 08:48:30;;;;;;;1498.27;999.90;;;19.70;58.20;;;;;;4953515;28;20536;-67
2022/06/21 08:51:39;;;;;;;1485.63;999.90;;;20.20;58.40;;;;;;4962383;28;20085;-67
2022/06/21 08:54:34;;;;;;;1753.27;999.90;;;20.60;57.20;;;;;;4966662;28;20757;-67
2022/06/21 08:57:03;;;;;;;1999.90;999.90;;;20.60;56.10;;;;;;4962367;28;20097;-67
2022/06/21 08:59:51;;;;;;;1871.93;999.90;;;20.50;56.00;;;;;;4947378;28;20039;-67
2022/06/21 09:03:17;;;;;;;1950.67;999.90;;;20.70;56.10;;;;;;4966660;28;20045;-67
2022/06/21 09:06:10;;;;;;;1941.88;999.90;;;20.90;55.20;;;;;;4894712;29;20096;-67
2022/06/21 09:08:50;;;;;;;1905.43;999.90;;;21.20;54.60;;;;;;4900028;29;20072;-67
2022/06/21 09:11:39;;;;;;;1935.07;999.90;;;21.00;54.50;;;;;;4962270;28;20054;-67
2022/06/21 09:14:20;;;;;;;1882.83;999.90;;;21.00;54.10;;;;;;4945081;28;20138;-67
2022/06/21 09:17:27;;;;;;;1938.33;999.90;;;20.60;53.60;;;;;;4965482;28;20505;-67
2022/06/21 09:20:11;;;;;;;1937.20;999.90;;;20.50;55.60;;;;;;4938699;28;20069;-67
2022/06/21 09:22:46;;;;;;;1798.60;999.90;;;20.70;55.00;;;;;;4969083;28;20134;-67
2022/06/21 09:25:35;;;;;;;1993.60;999.90;;;20.60;54.10;;;;;;4963490;28;20047;-68
2022/06/21 09:28:33;;;;;;;1869.70;999.90;;;20.90;54.70;;;;;;4949046;28;20526;-68
2022/06/21 09:31:11;;;;;;;1839.07;999.90;;;21.20;54.30;;;;;;4968742;28;20763;-67
2022/06/21 09:33:46;;;;;;;1795.47;999.90;;;21.20;54.60;;;;;;4963519;28;20467;-67
2022/06/21 09:36:54;;;;;;;1882.80;999.90;;;21.30;53.40;;;;;;4964846;28;20042;-68
2022/06/21 09:39:31;;;;;;;1897.63;999.90;;;21.50;53.90;;;;;;4940045;28;20522;-67
2022/06/21 09:42:22;;;;;;;1806.27;999.90;;;21.80;53.80;;;;;;4951926;28;20127;-67
2022/06/21 09:44:55;;;;;;;1961.27;999.90;;;21.90;52.50;;;;;;4941077;28;20046;-67
2022/06/21 09:47:45;;;;;;;1783.70;999.90;;;21.90;53.50;;;;;;4968648;28;20491;-67
2022/06/21 09:50:29;;;;;;;1876.93;999.90;;;22.00;51.90;;;;;;4940742;28;20470;-67
2022/06/21 09:53:08;;;;;;;1813.03;999.90;;;22.20;52.00;;;;;;4956314;28;20050;-67
2022/06/21 09:56:05;;;;;;;1605.73;999.90;;;21.90;51.20;;;;;;4941165;29;20047;-67
2022/06/21 09:58:50;;;;;;;1586.67;999.90;;;21.20;52.90;;;;;;4958208;28;20086;-67
2022/06/21 10:01:22;;;;;;;1524.93;999.90;;;21.20;53.00;;;;;;4935994;28;20059;-67
2022/06/21 10:04:23;;;;;;;1603.83;999.90;;;21.20;52.80;;;;;;4933597;28;20458;-67
2022/06/21 10:07:26;;;;;;;1504.70;999.90;;;21.40;54.00;;;;;;4959745;28;20082;-67
2022/06/21 10:10:11;;;;;;;1566.10;999.90;;;21.30;53.50;;;;;;4939600;28;20047;-67
2022/06/21 10:12:39;;;;;;;1594.28;999.90;;;21.50;53.50;;;;;;4967484;28;20458;-67
2022/06/21 10:15:28;;;;;;;1495.47;999.90;;;21.70;52.10;;;;;;4967702;28;20043;-67
2022/06/21 10:18:24;;;;;;;1459.20;999.90;;;21.80;52.30;;;;;;4967186;28;20039;-67
2022/06/21 10:21:14;;;;;;;1468.77;999.90;;;22.10;51.20;;;;;;4963453;28;20051;-67
2022/06/21 10:23:52;;;;;;;1679.13;999.90;;;22.20;50.40;;;;;;4962363;28;20057;-67
2022/06/21 10:26:23;;;;;;;1615.70;999.90;;;22.20;51.80;;;;;;4958724;28;20148;-68
2022/06/21 10:29:06;;;;;;;1499.93;999.90;;;22.20;52.10;;;;;;4955729;28;20526;-68
2022/06/21 10:31:56;;;;;;;1593.27;999.90;;;22.20;51.80;;;;;;4945892;28;20402;-68
2022/06/21 10:34:42;;;;;;;1579.97;999.90;;;22.10;51.40;;;;;;4958003;28;20061;-68
2022/06/21 10:37:28;;;;;;;1582.93;999.90;;;22.30;51.80;;;;;;4974932;28;20487;-68
2022/06/21 10:40:26;;;;;;;1564.87;999.90;;;22.50;51.90;;;;;;4962646;28;20054;-68
2022/06/21 10:42:58;;;;;;;1479.60;999.90;;;22.60;50.20;;;;;;4926547;28;20051;-68
2022/06/21 10:45:59;;;;;;;1475.97;999.90;;;22.60;49.50;;;;;;4938872;28;20626;-68
2022/06/21 10:48:36;;;;;;;1496.70;999.90;;;22.70;48.60;;;;;;4908154;29;20044;-68
2022/06/21 10:51:18;;;;;;;1563.43;999.90;;;22.50;48.60;;;;;;4952749;28;20102;-68
2022/06/21 10:54:01;;;;;;;1464.10;999.90;;;22.30;50.10;;;;;;4947789;28;20505;-67
2022/06/21 10:57:12;;;;;;;1473.77;999.90;;;21.90;49.60;;;;;;4962412;28;20046;-68
2022/06/21 11:02:40;;;;;;;1326.77;999.90;;;22.30;50.50;;;;;;4961980;28;20077;-68
2022/06/21 11:05:43;;;;;;;1466.03;999.90;;;22.40;48.40;;;;;;4944176;28;20371;-68
2022/06/21 11:08:26;;;;;;;1439.70;999.90;;;22.50;48.50;;;;;;4946809;28;20575;-68
2022/06/21 11:11:24;;;;;;;1580.27;999.90;;;22.40;49.20;;;;;;4966046;28;20062;-68
2022/06/21 11:14:14;;;;;;;1407.17;999.90;;;22.30;49.00;;;;;;4962626;28;20403;-68
2022/06/21 11:17:04;;;;;;;1438.90;999.90;;;22.20;48.60;;;;;;4950571;28;20440;-68
2022/06/21 11:19:51;;;;;;;1504.13;999.90;;;22.20;49.40;;;;;;4957806;28;20105;-68
2022/06/21 11:22:25;;;;;;;1161.17;999.90;;;22.20;50.30;;;;;;4963406;28;20051;-68
2022/06/21 11:24:51;;;;;;;1458.68;999.90;;;22.30;49.90;;;;;;4959765;28;20039;-68
2022/06/21 11:27:38;;;;;;;1406.97;999.90;;;22.40;50.40;;;;;;4962206;28;20049;-68
2022/06/21 11:30:41;;;;;;;1487.03;999.90;;;22.70;49.50;;;;;;4966449;28;20587;-67
2022/06/21 11:33:16;;;;;;;1173.27;999.90;;;22.60;49.10;;;;;;4960354;28;20078;-67
2022/06/21 11:36:05;;;;;;;1167.73;999.90;;;22.60;50.50;;;;;;4944298;28;20070;-68
2022/06/21 11:38:54;;;;;;;1520.80;999.90;;;22.70;49.50;;;;;;4958077;28;20043;-68
2022/06/21 11:44:48;;;;;;;1444.60;999.90;;;22.80;49.90;;;;;;4959043;28;20093;-67
2022/06/21 11:47:25;;;;;;;1483.07;999.90;;;23.20;50.00;;;;;;4982904;28;20440;-67
2022/06/21 11:50:26;;;;;;;1473.77;999.90;;;23.50;48.80;;;;;;4963615;28;20051;-67
2022/06/21 11:53:13;;;;;;;1498.60;999.90;;;23.50;48.40;;;;;;4964286;28;20439;-67
2022/06/21 11:55:58;;;;;;;1457.50;999.90;;;23.70;48.30;;;;;;4940304;28;20964;-68
2022/06/21 11:58:36;;;;;;;1496.65;999.90;;;23.90;47.70;;;;;;4945294;29;20126;-68
2022/06/21 12:01:10;;;;;;;1517.13;999.90;;;24.00;46.30;;;;;;4963701;28;20407;-68
2022/06/21 12:03:59;;;;;;;1460.78;999.90;;;24.10;46.80;;;;;;4938444;28;20043;-68
2022/06/21 12:06:52;;;;;;;1531.93;999.90;;;24.20;46.10;;;;;;4963981;28;20042;-68
2022/06/21 12:09:45;;;;;;;1456.57;999.90;;;24.00;47.50;;;;;;4961573;28;20478;-68
2022/06/21 12:12:48;;;;;;;1405.53;999.90;;;23.70;47.50;;;;;;4948285;28;20098;-68
2022/06/21 12:15:41;;;;;;;1388.80;999.90;;;23.70;45.80;;;;;;4959484;28;20101;-68
2022/06/21 12:18:14;;;;;;;1538.90;999.90;;;23.80;47.70;;;;;;4964191;28;20085;-68
2022/06/21 12:20:55;;;;;;;1331.30;999.90;;;23.70;47.30;;;;;;4962876;28;20233;-68
2022/06/21 12:23:41;;;;;;;1441.93;999.90;;;23.60;47.40;;;;;;4966126;28;20047;-68
2022/06/21 12:26:11;;;;;;;1609.80;999.90;;;23.40;46.50;;;;;;4951149;28;20071;-68
2022/06/21 12:28:39;;;;;;;1480.07;999.90;;;23.20;48.80;;;;;;4966138;28;20046;-68
2022/06/21 12:31:30;;;;;;;1424.93;999.90;;;23.40;48.20;;;;;;4966063;28;20087;-68
2022/06/21 12:34:04;;;;;;;1404.00;999.90;;;23.60;47.30;;;;;;4966403;28;20051;-68
2022/06/21 12:36:41;;;;;;;1531.93;999.90;;;23.40;46.10;;;;;;4968893;28;20094;-67
2022/06/21 12:39:16;;;;;;;1445.23;999.90;;;23.40;46.80;;;;;;4950074;28;20414;-67
2022/06/21 12:42:13;;;;;;;1390.47;999.90;;;23.40;48.50;;;;;;4966295;28;20046;-67
2022/06/21 12:44:57;;;;;;;1430.57;999.90;;;23.60;46.70;;;;;;4968069;28;20050;-67
2022/06/21 12:47:30;;;;;;;1430.43;999.90;;;23.60;47.50;;;;;;4944530;28;20050;-67
2022/06/21 12:50:33;;;;;;;1515.17;999.90;;;23.70;47.00;;;;;;4966448;28;20130;-68
2022/06/21 12:53:21;;;;;;;1543.87;999.90;;;23.70;47.50;;;;;;4965161;28;20399;-68
2022/06/21 12:56:12;;;;;;;1148.97;999.90;;;23.90;48.00;;;;;;4963046;28;20046;-68
2022/06/21 12:59:06;;;;;;;1372.20;999.90;;;24.00;47.50;;;;;;4967280;28;20511;-68
2022/06/21 13:01:56;;;;;;;1146.20;999.90;;;24.00;46.10;;;;;;4947562;28;20130;-68
2022/06/21 13:04:58;;;;;;;1144.73;999.90;;;24.10;46.80;;;;;;4965785;28;20133;-68
2022/06/21 13:07:29;;;;;;;1126.00;999.90;;;24.40;46.90;;;;;;4965460;28;20125;-68
2022/06/21 13:10:09;;;;;;;1147.77;999.90;;;24.30;45.50;;;;;;4963146;28;20043;-68
2022/06/21 13:12:58;;;;;;;1179.47;999.90;;;24.00;46.40;;;;;;4960480;28;20090;-68
2022/06/21 13:15:37;;;;;;;1148.00;999.90;;;23.70;48.60;;;;;;4948644;28;20085;-68